Time;durP1;ratioP1;P1;durP2;ratioP2;P2;SDS_P1;SDS_P2;PMS_P1;PMS_P2;Temp;Humidity;BMP_temperature;BMP_pressure;BME280_temperature;BME280_humidity;BME280_pressure;Samples;Min_cycle;Max_cycle;Signal;HPM_P1;HPM_P2
2022/05/05 00:00:55;;;;;;;17.65;9.45;;;;;;;12.53;63.18;102095.38;5035228;28;20629;-58
2022/05/05 00:03:21;;;;;;;18.50;9.18;;;;;;;12.54;63.80;102104.09;5031900;28;20044;-59
2022/05/05 00:05:46;;;;;;;21.00;9.07;;;;;;;12.51;63.84;102104.00;5027507;28;20044;-57
2022/05/05 00:08:12;;;;;;;18.08;8.93;;;;;;;12.52;62.62;102109.28;5023806;28;20032;-62
2022/05/05 00:16:07;;;;;;;18.63;9.20;;;;;;;12.63;61.15;102101.69;5033246;28;20141;-58
2022/05/05 00:18:33;;;;;;;17.88;9.18;;;;;;;12.70;60.62;102103.63;5028985;28;21271;-59
2022/05/05 00:20:58;;;;;;;17.52;8.90;;;;;;;12.73;60.53;102100.19;5036036;28;20040;-59
2022/05/05 00:23:24;;;;;;;20.80;9.23;;;;;;;12.71;60.56;102096.66;5030049;28;20112;-59
2022/05/05 00:25:49;;;;;;;19.33;9.55;;;;;;;12.68;61.12;102102.72;5034804;28;20052;-58
2022/05/05 00:28:14;;;;;;;20.80;10.10;;;;;;;12.66;61.01;102100.91;5033291;28;20049;-60
2022/05/05 00:30:40;;;;;;;16.67;9.70;;;;;;;12.64;61.10;102099.97;5036916;28;20047;-59
2022/05/05 00:33:05;;;;;;;21.63;11.23;;;;;;;12.59;61.23;102105.97;5016551;28;20102;-56
2022/05/05 00:35:31;;;;;;;24.25;11.00;;;;;;;12.60;61.67;102106.88;5028368;28;20040;-59
2022/05/05 00:37:57;;;;;;;27.63;11.00;;;;;;;12.62;61.40;102105.19;5035276;28;20048;-59
2022/05/05 00:40:22;;;;;;;20.50;10.05;;;;;;;12.62;60.97;102107.81;5025685;28;20041;-58
2022/05/05 00:42:47;;;;;;;20.98;10.02;;;;;;;12.66;61.07;102099.16;5033969;28;20063;-57
2022/05/05 00:45:13;;;;;;;21.55;10.00;;;;;;;12.60;61.23;102110.38;5036068;28;20147;-58
2022/05/05 00:47:38;;;;;;;20.05;10.02;;;;;;;12.58;61.49;102105.94;5029659;28;20052;-57
2022/05/05 00:50:05;;;;;;;17.30;9.77;;;;;;;12.58;61.22;102106.81;5038549;28;20312;-58
2022/05/05 00:52:31;;;;;;;18.63;10.35;;;;;;;12.56;61.49;102103.28;5025994;28;20648;-59
2022/05/05 00:54:57;;;;;;;20.30;10.18;;;;;;;12.54;61.83;102106.72;5035700;28;20107;-58
2022/05/05 00:57:23;;;;;;;20.63;10.68;;;;;;;12.59;61.24;102100.75;5031446;28;20053;-59
2022/05/05 00:59:50;;;;;;;21.48;10.45;;;;;;;12.61;61.17;102098.19;5033679;28;20040;-57
2022/05/05 01:02:16;;;;;;;22.17;10.68;;;;;;;12.62;60.81;102102.56;5012512;28;20283;-59
2022/05/05 01:04:42;;;;;;;21.00;10.55;;;;;;;12.64;61.15;102099.97;5027077;28;20499;-58
2022/05/05 01:07:08;;;;;;;18.67;10.60;;;;;;;12.64;61.57;102093.00;5037334;28;20041;-57
2022/05/05 01:09:35;;;;;;;21.90;10.57;;;;;;;12.61;61.99;102087.72;5036038;28;20066;-59
2022/05/05 01:12:02;;;;;;;18.27;10.27;;;;;;;12.62;61.57;102094.72;5028320;28;20078;-59
2022/05/05 01:14:28;;;;;;;19.27;9.68;;;;;;;12.62;61.60;102094.72;5031263;28;20147;-57
2022/05/05 01:16:54;;;;;;;18.00;9.43;;;;;;;12.64;61.46;102093.00;5034118;28;20484;-59
2022/05/05 01:19:19;;;;;;;20.40;9.85;;;;;;;12.66;62.04;102091.31;5030141;28;20463;-59
2022/05/05 01:21:54;;;;;;;21.58;10.30;;;;;;;12.62;61.74;102093.84;5031645;28;20514;-56
2022/05/05 01:28:10;;;;;;;20.83;10.15;;;;;;;12.65;62.13;102091.28;5030944;28;20205;-57
2022/05/05 01:29:51;;;;;;;18.58;9.93;;;;;;;12.66;62.37;102093.06;5035817;28;20102;-59
2022/05/05 01:32:19;;;;;;;21.38;10.90;;;;;;;12.66;61.88;102091.31;5005848;28;20562;-58
2022/05/05 01:34:44;;;;;;;19.88;10.23;;;;;;;12.69;62.20;102086.16;5035644;28;20519;-59
2022/05/05 01:37:10;;;;;;;24.60;10.88;;;;;;;12.70;62.42;102087.91;5034774;28;20045;-59
2022/05/05 01:39:38;;;;;;;18.73;10.15;;;;;;;12.73;62.18;102084.50;5036655;28;20773;-60
2022/05/05 01:42:04;;;;;;;17.20;10.15;;;;;;;12.73;62.80;102092.34;5032456;28;20322;-59
2022/05/05 01:44:29;;;;;;;19.63;10.95;;;;;;;12.74;62.55;102087.16;5027553;28;20309;-58
2022/05/05 01:46:55;;;;;;;20.85;10.10;;;;;;;12.76;62.50;102085.44;5031484;28;20181;-58
2022/05/05 01:49:20;;;;;;;18.88;10.20;;;;;;;12.76;63.02;102085.44;5035018;28;20056;-59
2022/05/05 01:51:45;;;;;;;22.45;10.95;;;;;;;12.73;62.85;102084.50;5039751;28;20032;-58
2022/05/05 01:54:11;;;;;;;20.75;11.00;;;;;;;12.75;62.61;102088.91;5031545;28;20044;-61
2022/05/05 01:56:37;;;;;;;21.10;10.52;;;;;;;12.75;62.83;102085.41;5036981;28;20504;-58
2022/05/05 01:59:02;;;;;;;18.45;10.85;;;;;;;12.74;62.88;102091.50;5040937;28;20150;-59
2022/05/05 02:01:28;;;;;;;20.20;10.75;;;;;;;12.73;62.58;102094.97;5033489;28;20597;-59
2022/05/05 02:03:53;;;;;;;20.42;10.82;;;;;;;12.73;62.72;102100.19;5036435;28;20044;-59
2022/05/05 02:06:18;;;;;;;21.88;11.68;;;;;;;12.71;62.93;102097.53;5034536;28;20100;-58
2022/05/05 02:08:43;;;;;;;19.33;10.35;;;;;;;12.70;62.78;102098.38;5036675;28;20072;-58
2022/05/05 02:11:09;;;;;;;19.73;9.57;;;;;;;12.68;62.75;102096.59;5033604;28;20041;-58
2022/05/05 02:13:35;;;;;;;18.63;9.60;;;;;;;12.63;62.91;102099.06;5039579;28;20037;-60
2022/05/05 02:16:00;;;;;;;20.67;10.43;;;;;;;12.60;62.78;102106.88;5038086;28;20036;-58
2022/05/05 02:18:27;;;;;;;18.55;10.23;;;;;;;12.55;62.90;102103.25;5031200;28;20146;-59
2022/05/05 02:20:52;;;;;;;23.25;10.18;;;;;;;12.50;63.05;102107.50;5027059;28;20586;-58
2022/05/05 02:23:18;;;;;;;17.67;9.68;;;;;;;12.49;62.84;102109.22;5040341;28;20045;-57
2022/05/05 02:25:43;;;;;;;18.80;10.27;;;;;;;12.43;63.09;102108.19;5017260;28;20039;-60
2022/05/05 02:28:08;;;;;;;19.08;10.50;;;;;;;12.35;63.59;102107.09;5039963;28;20063;-58
2022/05/05 02:30:34;;;;;;;19.02;9.65;;;;;;;12.28;63.78;102113.88;5037971;28;20093;-56
2022/05/05 02:32:59;;;;;;;20.02;10.80;;;;;;;12.18;64.79;102107.56;5039675;28;20131;-58
2022/05/05 02:35:24;;;;;;;20.25;10.60;;;;;;;12.11;64.63;102113.44;5037054;28;20660;-57
2022/05/05 02:40:34;;;;;;;18.83;10.43;;;;;;;11.90;64.65;102110.25;5035315;28;20158;-58
2022/05/05 02:43:00;;;;;;;28.67;11.25;;;;;;;11.78;65.63;102113.41;5042536;28;20503;-57
2022/05/05 02:45:26;;;;;;;18.58;11.00;;;;;;;11.67;65.53;102109.56;5039705;28;20645;-59
2022/05/05 02:47:52;;;;;;;18.25;10.60;;;;;;;11.59;66.16;102112.78;5034326;28;20055;-59
2022/05/05 02:50:18;;;;;;;20.40;10.70;;;;;;;11.52;66.12;102119.59;5027788;28;20036;-58
2022/05/05 02:52:43;;;;;;;19.17;10.05;;;;;;;11.44;66.70;102117.59;5039601;28;20086;-57
2022/05/05 02:55:08;;;;;;;17.52;10.27;;;;;;;11.37;66.17;102114.78;5040037;28;20095;-58
2022/05/05 02:57:34;;;;;;;18.95;10.32;;;;;;;11.29;66.73;102116.28;5040495;28;20066;-57
2022/05/05 03:00:00;;;;;;;20.60;10.50;;;;;;;11.22;66.87;102109.09;5022549;28;20045;-57
2022/05/05 03:02:25;;;;;;;19.33;9.80;;;;;;;11.17;67.25;102112.41;5013707;28;20330;-59
2022/05/05 03:04:51;;;;;;;16.52;9.00;;;;;;;11.15;67.27;102114.09;5037729;28;20478;-58
2022/05/05 03:07:17;;;;;;;19.17;9.77;;;;;;;11.09;67.70;102114.81;5041703;28;20100;-59
2022/05/05 03:09:43;;;;;;;17.00;9.75;;;;;;;11.05;68.33;102112.03;5035997;28;20085;-58
2022/05/05 03:12:09;;;;;;;20.70;9.85;;;;;;;11.02;68.64;102109.34;5035003;28;20044;-58
2022/05/05 03:14:35;;;;;;;16.77;9.18;;;;;;;11.03;68.48;102108.50;5031190;28;20125;-58
2022/05/05 03:17:00;;;;;;;18.52;9.23;;;;;;;11.02;68.33;102110.22;5038399;28;20781;-59
2022/05/05 03:19:26;;;;;;;17.83;8.95;;;;;;;11.04;68.08;102116.38;5042956;28;20476;-59
2022/05/05 03:21:53;;;;;;;16.55;8.98;;;;;;;11.03;68.10;102113.72;5041357;28;20245;-59
2022/05/05 03:24:18;;;;;;;19.75;9.13;;;;;;;11.02;68.19;102120.66;5012387;28;20090;-60
2022/05/05 03:26:43;;;;;;;17.20;8.88;;;;;;;11.01;68.09;102116.28;5030235;28;20048;-59
2022/05/05 03:29:09;;;;;;;18.50;9.15;;;;;;;11.03;68.21;102113.72;5039460;28;20113;-59
2022/05/05 03:31:34;;;;;;;19.17;9.02;;;;;;;11.03;68.47;102109.41;5039902;28;20064;-58
2022/05/05 03:33:59;;;;;;;21.15;9.63;;;;;;;10.98;68.31;102105.72;5038609;28;20124;-60
2022/05/05 03:36:25;;;;;;;18.92;9.55;;;;;;;11.01;68.60;102118.00;5030106;28;20040;-60
2022/05/05 03:38:54;;;;;;;22.55;10.45;;;;;;;10.99;69.45;102108.41;5025325;28;20936;-59
2022/05/05 03:41:19;;;;;;;20.10;10.27;;;;;;;11.09;69.28;102104.38;5042304;28;20954;-60
2022/05/05 03:43:45;;;;;;;20.33;10.38;;;;;;;11.17;68.58;102108.06;5034728;28;20578;-58
2022/05/05 03:46:10;;;;;;;19.08;10.23;;;;;;;11.29;68.27;102112.78;5031192;28;20063;-57
2022/05/05 03:48:35;;;;;;;19.05;10.10;;;;;;;11.33;67.61;102106.84;5034564;28;20458;-59
2022/05/05 03:51:01;;;;;;;19.55;10.50;;;;;;;11.39;67.35;102107.91;5038732;28;20036;-59
2022/05/05 03:53:27;;;;;;;19.35;10.02;;;;;;;11.45;66.94;102109.81;5042662;28;20064;-59
2022/05/05 03:55:52;;;;;;;17.70;9.80;;;;;;;11.52;67.07;102111.75;5033955;28;20869;-58
2022/05/05 03:58:17;;;;;;;17.52;9.38;;;;;;;11.57;66.68;102114.50;5027748;28;20528;-59
2022/05/05 04:00:43;;;;;;;18.80;10.15;;;;;;;11.61;66.62;102114.63;5038029;28;20567;-57
2022/05/05 04:05:52;;;;;;;20.67;9.98;;;;;;;11.69;66.50;102110.50;5031803;28;20125;-59
2022/05/05 04:08:18;;;;;;;20.60;11.50;;;;;;;11.74;66.58;102115.91;5034835;28;20032;-59
2022/05/05 04:10:43;;;;;;;18.23;10.43;;;;;;;11.75;66.61;102115.94;5026070;28;20350;-59
2022/05/05 04:13:08;;;;;;;29.75;11.18;;;;;;;11.82;66.69;102119.63;5035112;28;20055;-58
2022/05/05 04:15:43;;;;;;;22.50;10.77;;;;;;;11.90;65.97;102120.69;5034216;28;20058;-58
2022/05/05 04:18:08;;;;;;;19.17;10.45;;;;;;;12.00;65.41;102121.84;5035797;28;20612;-59
2022/05/05 04:20:34;;;;;;;22.35;10.43;;;;;;;12.08;65.03;102122.94;5028171;28;20044;-58
2022/05/05 04:22:59;;;;;;;19.75;10.00;;;;;;;12.16;65.15;102119.69;5020742;28;20136;-59
2022/05/05 04:25:24;;;;;;;16.63;10.30;;;;;;;12.22;64.75;102123.31;5039941;28;20017;-59
2022/05/05 04:27:50;;;;;;;17.17;9.57;;;;;;;12.26;64.63;102128.66;5021696;28;20393;-57
2022/05/05 04:30:16;;;;;;;23.33;10.60;;;;;;;12.29;64.72;102126.13;5025725;28;20102;-59
2022/05/05 04:32:45;;;;;;;17.38;10.10;;;;;;;12.33;64.75;102133.19;5036655;28;20048;-57
2022/05/05 04:35:11;;;;;;;20.45;10.75;;;;;;;12.36;64.63;102130.69;5026291;28;20431;-58
2022/05/05 04:37:38;;;;;;;18.98;10.50;;;;;;;12.37;64.70;102132.44;5037937;28;20390;-58
2022/05/05 04:40:04;;;;;;;18.58;10.20;;;;;;;12.40;64.81;102132.50;5027220;28;20048;-59
2022/05/05 04:42:29;;;;;;;22.38;10.85;;;;;;;12.43;64.69;102135.22;5026133;28;20331;-59
2022/05/05 04:44:55;;;;;;;18.60;10.25;;;;;;;12.54;64.35;102128.53;5036418;28;20076;-58
2022/05/05 04:47:20;;;;;;;24.15;10.98;;;;;;;12.60;64.44;102130.41;5037058;28;20547;-58
2022/05/05 04:49:45;;;;;;;20.52;10.93;;;;;;;12.61;63.92;102140.03;5040811;28;20166;-59
2022/05/05 04:52:12;;;;;;;21.83;11.10;;;;;;;12.65;63.86;102138.38;5036487;28;20032;-57
2022/05/05 04:54:38;;;;;;;20.17;10.75;;;;;;;12.69;63.82;102140.19;5034223;28;20044;-59
2022/05/05 04:57:03;;;;;;;21.77;10.88;;;;;;;12.71;63.90;102136.78;5035428;28;20067;-58
2022/05/05 04:59:29;;;;;;;19.70;10.93;;;;;;;12.74;63.78;102147.34;5039756;28;20051;-60
2022/05/05 05:01:54;;;;;;;20.63;11.07;;;;;;;12.80;63.60;102150.13;5038867;28;20040;-59
2022/05/05 05:04:20;;;;;;;25.90;12.07;;;;;;;12.81;63.60;102153.59;5032662;28;20040;-59
2022/05/05 05:06:45;;;;;;;24.10;11.60;;;;;;;12.85;64.47;102152.84;5039211;28;20610;-58
2022/05/05 05:09:10;;;;;;;25.50;12.48;;;;;;;12.85;63.97;102152.84;5035465;28;20063;-58
2022/05/05 05:11:36;;;;;;;21.85;12.00;;;;;;;12.91;64.25;102156.50;5030604;28;20570;-58
2022/05/05 05:14:01;;;;;;;24.02;11.50;;;;;;;12.97;64.08;102153.13;5039389;28;20071;-59
2022/05/05 05:16:27;;;;;;;21.65;11.57;;;;;;;13.00;64.32;102156.69;5031614;28;20536;-57
2022/05/05 05:18:53;;;;;;;22.77;11.15;;;;;;;13.09;63.99;102156.03;5041813;28;20056;-58
2022/05/05 05:21:22;;;;;;;26.33;11.70;;;;;;;13.08;63.92;102169.97;5034227;28;20047;-59
2022/05/05 05:23:48;;;;;;;22.98;11.80;;;;;;;13.17;63.71;102171.97;5016076;28;20072;-59
2022/05/05 05:26:13;;;;;;;23.48;11.88;;;;;;;13.22;63.75;102173.84;5030979;28;20163;-60
2022/05/05 05:28:40;;;;;;;22.50;11.65;;;;;;;13.28;63.61;102173.09;5033165;28;20041;-59
2022/05/05 05:31:05;;;;;;;22.83;11.80;;;;;;;13.27;64.07;102174.84;5036667;28;20040;-58
2022/05/05 05:33:30;;;;;;;20.60;11.52;;;;;;;13.35;63.95;102181.16;5044392;28;20052;-59
2022/05/05 05:35:56;;;;;;;20.67;11.65;;;;;;;13.38;63.35;102180.31;5040231;28;20032;-58
2022/05/05 05:38:21;;;;;;;21.08;11.43;;;;;;;13.49;63.33;102185.78;5033745;28;20408;-57
2022/05/05 05:40:47;;;;;;;22.55;11.80;;;;;;;13.58;62.93;102189.50;5022421;28;20049;-60
2022/05/05 05:43:13;;;;;;;27.58;12.02;;;;;;;13.68;62.70;102193.19;5021860;28;20045;-59
2022/05/05 05:45:38;;;;;;;24.17;12.20;;;;;;;13.78;62.45;102195.19;5041623;28;20427;-59
2022/05/05 05:48:05;;;;;;;25.52;12.10;;;;;;;13.82;62.23;102197.91;5034694;28;20056;-57
2022/05/05 05:50:31;;;;;;;23.13;12.38;;;;;;;13.87;62.48;102200.59;5034856;28;20180;-59
2022/05/05 05:52:57;;;;;;;24.20;12.65;;;;;;;13.94;62.20;102199.88;5032495;28;20323;-59
2022/05/05 05:55:23;;;;;;;26.02;13.00;;;;;;;13.97;61.70;102196.41;5033316;28;20294;-58
2022/05/05 05:57:48;;;;;;;25.73;12.43;;;;;;;14.03;62.58;102204.41;5041214;28;20055;-59
2022/05/05 06:00:14;;;;;;;27.15;12.77;;;;;;;14.12;62.70;102208.13;5031555;28;20029;-59
2022/05/05 06:05:24;;;;;;;31.00;13.82;;;;;;;14.09;63.15;102210.66;5034748;28;20098;-58
2022/05/05 06:07:49;;;;;;;24.33;13.70;;;;;;;14.14;62.84;102208.16;5040261;28;20028;-59
2022/05/05 06:10:18;;;;;;;33.95;14.77;;;;;;;14.16;62.25;102209.06;5023853;28;20029;-59
2022/05/05 06:12:43;;;;;;;30.05;14.95;;;;;;;14.16;62.28;102212.56;5035298;28;20110;-59
2022/05/05 06:15:09;;;;;;;35.10;16.42;;;;;;;14.20;62.13;102214.41;5028479;28;20040;-59
2022/05/05 06:17:35;;;;;;;31.85;15.52;;;;;;;14.28;62.12;102224.16;5037981;28;20060;-58
2022/05/05 06:20:00;;;;;;;30.38;15.02;;;;;;;14.28;61.82;102219.78;5040600;28;20078;-58
2022/05/05 06:22:25;;;;;;;32.08;15.00;;;;;;;14.44;61.75;102223.66;5033340;28;20826;-59
2022/05/05 06:24:51;;;;;;;29.17;16.00;;;;;;;14.50;62.38;102224.66;5038126;28;20101;-59
2022/05/05 06:27:16;;;;;;;33.00;15.40;;;;;;;14.57;62.45;102221.28;5033640;28;20073;-59
2022/05/05 06:29:42;;;;;;;33.42;14.75;;;;;;;14.64;62.14;102226.66;5039319;28;20260;-57
2022/05/05 06:32:08;;;;;;;30.48;15.88;;;;;;;14.73;62.16;102232.03;5038946;28;20230;-58
2022/05/05 06:34:33;;;;;;;31.52;15.93;;;;;;;14.83;61.90;102233.97;5033942;28;20048;-57
2022/05/05 06:36:59;;;;;;;31.80;17.48;;;;;;;14.88;62.08;102237.59;5044307;28;20063;-59
2022/05/05 06:39:24;;;;;;;37.75;17.48;;;;;;;14.87;61.40;102238.44;5035989;28;20048;-58
2022/05/05 06:41:50;;;;;;;33.45;17.75;;;;;;;14.97;61.54;102232.47;5043390;28;20048;-58
2022/05/05 06:44:15;;;;;;;39.05;20.23;;;;;;;15.11;61.39;102245.84;5020653;28;20052;-59
2022/05/05 06:46:40;;;;;;;41.13;19.65;;;;;;;15.21;61.34;102247.75;5036867;28;20032;-59
2022/05/05 06:49:06;;;;;;;37.90;20.13;;;;;;;15.32;61.42;102243.53;5038582;28;20340;-62
2022/05/05 06:51:31;;;;;;;48.10;22.05;;;;;;;15.39;61.52;102242.78;5031425;28;20045;-58
2022/05/05 06:53:56;;;;;;;46.83;21.48;;;;;;;15.44;61.07;102244.63;5031190;28;20676;-60
2022/05/05 06:56:24;;;;;;;42.90;21.75;;;;;;;15.56;59.65;102245.69;5027659;28;20040;-60
2022/05/05 06:58:49;;;;;;;48.50;22.38;;;;;;;15.57;60.67;102240.47;5041268;28;20052;-58
2022/05/05 07:06:42;;;;;;;52.30;25.77;;;;;;;15.72;60.42;102248.59;5040853;28;20074;-59
2022/05/05 07:11:53;;;;;;;56.13;26.70;;;;;;;15.89;59.79;102245.28;5034237;28;20480;-60
2022/05/05 07:14:19;;;;;;;55.38;25.98;;;;;;;15.99;59.40;102250.69;5024813;28;20401;-59
2022/05/05 07:16:44;;;;;;;52.40;25.38;;;;;;;16.20;59.09;102255.34;5033960;28;20106;-59
2022/05/05 07:19:10;;;;;;;50.70;25.73;;;;;;;16.18;59.65;102257.06;5038023;28;20503;-58
2022/05/05 07:21:37;;;;;;;56.10;27.73;;;;;;;16.10;59.31;102253.47;5035395;28;20052;-59
2022/05/05 07:24:03;;;;;;;52.45;26.65;;;;;;;16.17;59.77;102260.56;5037399;28;20319;-59
2022/05/05 07:26:31;;;;;;;56.42;28.15;;;;;;;16.26;58.59;102265.06;5026020;28;20738;-59
2022/05/05 07:28:57;;;;;;;57.40;29.05;;;;;;;16.24;58.39;102260.66;5037262;28;20581;-58
2022/05/05 07:31:22;;;;;;;57.28;29.13;;;;;;;16.23;59.00;102261.53;5020669;28;20205;-57
2022/05/05 07:33:47;;;;;;;56.13;28.60;;;;;;;16.32;58.92;102259.88;5025462;28;20055;-59
2022/05/05 07:36:13;;;;;;;57.45;28.73;;;;;;;16.37;58.25;102263.44;5027638;28;20385;-61
2022/05/05 07:38:38;;;;;;;57.35;29.27;;;;;;;16.53;58.19;102261.00;5041186;28;20127;-58
2022/05/05 07:41:03;;;;;;;57.20;29.67;;;;;;;16.72;57.24;102269.13;5030293;28;20514;-57
2022/05/05 07:43:29;;;;;;;51.92;27.88;;;;;;;17.04;56.54;102265.94;5031629;28;20334;-58
2022/05/05 07:45:54;;;;;;;55.65;28.13;;;;;;;17.17;56.85;102268.69;5041290;28;20087;-58
2022/05/05 07:48:20;;;;;;;54.85;28.35;;;;;;;17.08;56.72;102273.88;5034161;28;20070;-59
2022/05/05 07:50:49;;;;;;;55.20;27.67;;;;;;;17.00;56.47;102272.06;5032742;28;20405;-56
2022/05/05 07:53:15;;;;;;;56.65;29.58;;;;;;;16.88;56.95;102274.56;5036226;28;20163;-60
2022/05/05 07:55:40;;;;;;;55.45;28.60;;;;;;;16.93;57.78;102274.63;5036372;28;20569;-58
2022/05/05 07:58:06;;;;;;;54.67;28.85;;;;;;;17.16;57.25;102275.69;5036158;28;20268;-59
2022/05/05 08:00:31;;;;;;;59.97;29.65;;;;;;;17.26;56.31;102274.03;5035109;28;20082;-60
2022/05/05 08:02:57;;;;;;;54.83;29.35;;;;;;;17.53;55.26;102282.16;5035908;28;20057;-59
2022/05/05 08:05:22;;;;;;;58.08;30.42;;;;;;;17.63;55.57;102277.84;5036204;28;20425;-59
2022/05/05 08:07:49;;;;;;;59.40;30.20;;;;;;;17.78;55.37;102281.47;5032776;28;20047;-59
2022/05/05 08:10:17;;;;;;;62.20;31.10;;;;;;;17.97;55.27;102289.50;5030983;28;20431;-60
2022/05/05 08:12:48;;;;;;;58.88;30.08;;;;;;;18.12;53.89;102294.84;5036316;28;20123;-59
2022/05/05 08:15:16;;;;;;;62.20;30.55;;;;;;;18.38;53.45;102297.59;5038338;28;20040;-59
2022/05/05 08:17:43;;;;;;;61.90;31.65;;;;;;;18.46;52.86;102293.22;5040884;28;20052;-59
2022/05/05 08:20:09;;;;;;;59.10;31.55;;;;;;;18.53;53.46;102295.91;5040463;28;20044;-59
2022/05/05 08:22:35;;;;;;;59.72;31.50;;;;;;;18.59;53.34;102293.31;5024005;28;20044;-58
2022/05/05 08:30:29;;;;;;;62.55;32.03;;;;;;;18.79;53.17;102305.66;5035573;28;20071;-59
2022/05/05 08:32:54;;;;;;;63.72;31.45;;;;;;;18.88;51.80;102308.34;5039457;28;20108;-59
2022/05/05 08:35:22;;;;;;;60.42;31.23;;;;;;;19.16;51.86;102294.28;5033277;28;20539;-60
2022/05/05 08:37:48;;;;;;;61.00;33.13;;;;;;;18.84;53.32;102306.59;5020015;28;20547;-58
2022/05/05 08:40:13;;;;;;;64.53;31.63;;;;;;;18.68;52.34;102308.28;5026878;28;20074;-60
2022/05/05 08:42:39;;;;;;;63.65;32.22;;;;;;;18.76;52.84;102308.31;5035489;28;20048;-58
2022/05/05 08:45:13;;;;;;;57.85;31.75;;;;;;;18.86;52.31;102303.06;5026823;28;20056;-57
2022/05/05 08:47:39;;;;;;;65.95;33.22;;;;;;;18.79;52.09;102311.84;5030815;28;20743;-58
2022/05/05 08:50:11;;;;;;;60.85;31.05;;;;;;;19.31;51.13;102309.28;5035484;28;20036;-59
2022/05/05 08:52:48;;;;;;;57.83;31.98;;;;;;;19.32;51.74;102322.50;5028753;28;20041;-59
2022/05/05 08:55:20;;;;;;;61.08;31.00;;;;;;;19.82;50.71;102309.25;5033955;28;20109;-59
2022/05/05 08:57:45;;;;;;;60.90;31.85;;;;;;;19.74;49.76;102316.34;5034613;28;20402;-58
2022/05/05 09:00:13;;;;;;;58.75;31.65;;;;;;;20.01;50.02;102309.19;5035135;28;20044;-59
2022/05/05 09:02:39;;;;;;;55.67;31.92;;;;;;;19.84;50.84;102314.53;5032045;28;20284;-59
2022/05/05 09:05:05;;;;;;;60.15;32.13;;;;;;;20.07;49.00;102319.78;5035305;28;20044;-59
2022/05/05 09:07:48;;;;;;;60.95;33.13;;;;;;;19.82;50.62;102324.28;5036266;28;21312;-59
2022/05/05 09:10:15;;;;;;;58.72;31.83;;;;;;;20.03;49.17;102312.72;5024089;28;20295;-62
2022/05/05 09:12:40;;;;;;;53.60;31.27;;;;;;;20.15;49.92;102318.00;5019519;28;20473;-58
2022/05/05 09:15:10;;;;;;;53.35;31.20;;;;;;;20.10;49.87;102319.78;5029822;28;20046;-59
2022/05/05 09:17:35;;;;;;;53.55;29.13;;;;;;;20.47;49.13;102318.78;5038447;28;20530;-59
2022/05/05 09:20:03;;;;;;;58.20;31.85;;;;;;;20.38;49.12;102334.72;5031879;28;20350;-60
2022/05/05 09:22:29;;;;;;;52.25;29.30;;;;;;;20.63;49.32;102332.84;5027741;28;20430;-58
2022/05/05 09:24:56;;;;;;;57.67;32.83;;;;;;;20.59;49.52;102337.28;5030370;28;20049;-60
2022/05/05 09:27:33;;;;;;;59.33;33.08;;;;;;;20.22;50.30;102339.16;5031966;28;20434;-59
2022/05/05 14:13:15;;;;;;;28.42;18.88;;;;;;;21.39;47.22;102406.66;4995083;28;20392;-59
2022/05/05 14:15:41;;;;;;;30.90;19.30;;;;;;;21.21;46.74;102407.69;4957975;28;20515;-59
2022/05/05 14:18:06;;;;;;;26.92;18.27;;;;;;;21.32;46.76;102404.94;4951179;28;20104;-59
2022/05/05 14:20:32;;;;;;;29.85;18.55;;;;;;;21.40;48.03;102411.09;4952058;28;21780;-59
2022/05/05 14:22:58;;;;;;;31.58;19.90;;;;;;;21.36;46.53;102412.88;4947692;28;20042;-58
2022/05/05 14:25:24;;;;;;;29.05;17.77;;;;;;;21.52;47.02;102410.13;4960924;28;20050;-59
2022/05/05 14:27:49;;;;;;;27.38;17.63;;;;;;;21.57;46.79;102413.59;4955359;28;20045;-58
2022/05/05 14:30:15;;;;;;;25.45;16.70;;;;;;;21.57;46.05;102426.88;4956768;28;21055;-60
2022/05/05 14:32:40;;;;;;;24.77;16.65;;;;;;;21.50;45.78;102414.53;4960425;28;20042;-59
2022/05/05 14:35:07;;;;;;;23.67;15.95;;;;;;;21.45;46.05;102425.19;4954552;28;20088;-58
2022/05/05 14:37:32;;;;;;;26.63;17.60;;;;;;;21.08;45.56;102420.97;4949750;28;20046;-59
2022/05/05 14:39:58;;;;;;;24.35;16.80;;;;;;;21.03;45.54;102423.66;4953959;28;21269;-60
2022/05/05 14:42:24;;;;;;;29.17;18.70;;;;;;;20.96;46.70;102421.91;4948102;28;20049;-60
2022/05/05 14:44:49;;;;;;;27.25;17.23;;;;;;;21.01;47.15;102428.06;4952683;28;20068;-60
2022/05/05 14:47:15;;;;;;;24.38;16.65;;;;;;;21.09;46.38;102422.75;4949645;28;20529;-60
2022/05/05 14:49:40;;;;;;;25.33;16.42;;;;;;;21.06;46.02;102427.16;4957585;28;20194;-59
2022/05/05 14:52:06;;;;;;;27.95;17.70;;;;;;;21.06;45.87;102424.50;4957625;28;20053;-60
2022/05/05 14:54:32;;;;;;;27.38;17.67;;;;;;;20.72;46.51;102429.97;4943433;28;20046;-60
2022/05/05 14:56:57;;;;;;;24.52;16.48;;;;;;;20.77;46.49;102428.19;4955051;28;20061;-60
2022/05/05 14:59:23;;;;;;;26.10;16.40;;;;;;;20.64;47.37;102435.31;4969750;28;20104;-61
2022/05/05 15:01:48;;;;;;;25.35;15.77;;;;;;;20.61;46.96;102440.63;4953197;28;20259;-60
2022/05/05 15:04:14;;;;;;;25.27;16.27;;;;;;;20.45;47.17;102436.25;4934369;28;20056;-62
2022/05/05 15:06:39;;;;;;;28.35;18.15;;;;;;;20.45;48.67;102434.47;4955096;28;20074;-60
2022/05/05 15:09:06;;;;;;;28.10;18.60;;;;;;;20.39;48.49;102426.53;4959357;28;20301;-59
2022/05/05 15:11:33;;;;;;;26.58;17.38;;;;;;;20.43;48.46;102433.59;4970592;28;20512;-59
2022/05/05 15:13:58;;;;;;;23.08;15.05;;;;;;;20.04;47.40;102434.53;4990611;28;20101;-58
2022/05/05 15:16:24;;;;;;;19.95;13.43;;;;;;;20.12;46.55;102437.19;4963252;28;20034;-59
2022/05/05 15:18:50;;;;;;;25.98;15.23;;;;;;;20.07;47.58;102431.84;4976710;28;20034;-61
2022/05/05 15:21:15;;;;;;;21.95;14.38;;;;;;;20.05;48.15;102438.06;4979132;28;20041;-60
2022/05/05 15:23:41;;;;;;;25.00;14.75;;;;;;;19.99;47.83;102440.72;4971184;28;20034;-58
2022/05/05 15:26:11;;;;;;;22.40;14.43;;;;;;;19.98;47.88;102442.47;4976798;28;20065;-58
2022/05/05 15:28:39;;;;;;;22.20;14.93;;;;;;;19.90;48.80;102449.53;4975050;28;20406;-61
2022/05/05 15:31:05;;;;;;;21.40;14.23;;;;;;;19.94;48.11;102447.78;4976689;28;20051;-59
2022/05/05 15:33:30;;;;;;;22.20;13.48;;;;;;;19.97;48.78;102440.69;4961320;28;20107;-59
2022/05/05 15:35:56;;;;;;;23.00;14.70;;;;;;;19.95;48.81;102444.22;4974024;28;20049;-58
2022/05/05 15:38:25;;;;;;;23.35;13.55;;;;;;;20.00;49.46;102442.47;4963169;28;20112;-60
2022/05/05 15:40:51;;;;;;;23.17;14.80;;;;;;;19.91;48.54;102442.47;4970249;28;20157;-59
2022/05/05 15:43:16;;;;;;;20.85;13.13;;;;;;;19.85;49.20;102449.53;4971905;28;20123;-58
2022/05/05 15:45:45;;;;;;;20.25;13.02;;;;;;;19.89;49.58;102447.75;4968546;28;20057;-60
2022/05/05 15:48:11;;;;;;;20.33;12.63;;;;;;;19.92;48.74;102447.78;4970723;28;20095;-58
2022/05/05 15:50:36;;;;;;;20.17;12.57;;;;;;;19.88;48.75;102446.00;4975804;28;20046;-60
2022/05/05 15:53:02;;;;;;;19.38;11.90;;;;;;;19.76;48.50;102456.59;4976323;28;20042;-60
2022/05/05 15:55:27;;;;;;;20.08;11.68;;;;;;;19.81;48.73;102452.19;4972898;28;20487;-60
2022/05/05 15:57:52;;;;;;;16.52;11.38;;;;;;;19.84;49.35;102454.81;4968051;28;20046;-59
2022/05/05 16:00:20;;;;;;;19.42;11.55;;;;;;;19.92;49.50;102461.00;4975941;28;20468;-59
2022/05/05 16:02:47;;;;;;;20.13;12.15;;;;;;;19.88;49.27;102459.25;4955755;28;20042;-59
2022/05/05 16:05:17;;;;;;;21.42;12.65;;;;;;;19.66;49.77;102460.09;4973653;28;20621;-59
2022/05/05 16:07:43;;;;;;;21.48;12.50;;;;;;;19.49;50.48;102460.09;4957192;28;20484;-59
2022/05/05 16:10:09;;;;;;;18.73;11.85;;;;;;;19.51;50.38;102455.69;4969359;28;20058;-57
2022/05/05 16:12:35;;;;;;;20.45;12.05;;;;;;;19.47;51.13;102455.66;4968374;28;20061;-58
2022/05/05 16:15:01;;;;;;;17.73;11.85;;;;;;;19.25;50.60;102455.59;4971355;28;20133;-57
2022/05/05 16:17:27;;;;;;;19.13;11.52;;;;;;;19.30;50.62;102453.84;4973784;28;20112;-57